createdAt,value
2024-03-09T00:00:33.436Z,99.90
2024-03-09T00:03:03.537Z,99.90
2024-03-09T00:05:30.600Z,99.90
2024-03-09T00:07:58.969Z,51.90
2024-03-09T00:10:29.773Z,21.80
2024-03-09T00:12:57.754Z,94.50
2024-03-09T00:15:25.482Z,1.00
2024-03-09T00:17:53.275Z,4.40
2024-03-09T00:20:22.683Z,1.00
2024-03-09T00:22:49.989Z,99.90
2024-03-09T00:25:17.219Z,1.00
2024-03-09T00:27:45.171Z,1.00
2024-03-09T00:30:20.511Z,1.00
2024-03-09T00:32:52.201Z,1.00
2024-03-09T00:35:19.438Z,1.00
2024-03-09T00:37:46.388Z,1.00
2024-03-09T00:40:13.979Z,1.00
2024-03-09T00:42:41.279Z,1.00
2024-03-09T00:45:09.233Z,1.00
2024-03-09T00:47:37.422Z,1.00
2024-03-09T00:50:06.288Z,1.00
2024-03-09T00:52:34.046Z,1.00
2024-03-09T00:55:01.833Z,1.00
2024-03-09T00:57:28.997Z,1.00
2024-03-09T00:59:56.575Z,1.00
2024-03-09T01:02:23.864Z,1.00
2024-03-09T01:04:51.988Z,1.00
2024-03-09T01:07:20.954Z,1.00
2024-03-09T01:09:49.411Z,1.00
2024-03-09T01:12:18.775Z,1.00
2024-03-09T01:14:49.496Z,1.00
2024-03-09T01:17:22.580Z,1.00
2024-03-09T01:19:49.592Z,1.00
2024-03-09T01:22:17.298Z,1.00
2024-03-09T01:24:44.439Z,1.00
2024-03-09T01:27:11.231Z,1.00
2024-03-09T01:29:38.356Z,1.00
2024-03-09T01:32:07.282Z,9.30
2024-03-09T01:34:34.649Z,23.10
2024-03-09T01:37:06.529Z,76.10
2024-03-09T01:39:33.456Z,99.90
2024-03-09T01:42:00.418Z,99.90
2024-03-09T01:44:27.276Z,99.90
2024-03-09T01:46:55.014Z,99.90
2024-03-09T01:49:22.247Z,99.90
2024-03-09T01:51:51.158Z,99.90
2024-03-09T01:54:25.309Z,99.90
2024-03-09T01:56:52.398Z,94.70
2024-03-09T01:59:19.257Z,79.10
2024-03-09T02:01:46.384Z,61.10
2024-03-09T02:04:13.272Z,47.00
2024-03-09T02:06:41.530Z,31.70
2024-03-09T02:09:09.216Z,22.00
2024-03-09T02:11:43.364Z,12.20
2024-03-09T02:14:10.587Z,2.90
2024-03-09T02:16:37.612Z,1.00
2024-03-09T02:19:08.392Z,1.00
2024-03-09T02:21:36.226Z,1.00
2024-03-09T02:24:10.208Z,1.00
2024-03-09T02:26:39.694Z,1.00
2024-03-09T02:29:07.204Z,1.00
2024-03-09T02:31:34.263Z,1.00
2024-03-09T02:34:02.497Z,1.00
2024-03-09T02:36:33.787Z,6.50
2024-03-09T02:39:02.368Z,19.50
2024-03-09T02:41:29.327Z,31.90
2024-03-09T02:43:56.907Z,56.90
2024-03-09T02:46:26.987Z,60.80
2024-03-09T02:48:57.637Z,60.70
2024-03-09T02:51:28.077Z,81.40
2024-03-09T02:53:55.070Z,93.30
2024-03-09T02:56:22.155Z,86.70
2024-03-09T02:58:50.012Z,99.90
2024-03-09T03:01:21.634Z,99.90
2024-03-09T03:04:00.073Z,99.90
2024-03-09T03:06:29.939Z,99.90
2024-03-09T03:09:00.506Z,85.90
2024-03-09T03:11:29.372Z,94.20
2024-03-09T03:13:56.404Z,96.80
2024-03-09T03:16:28.145Z,96.80
2024-03-09T03:18:59.176Z,96.30
2024-03-09T03:21:26.862Z,91.80
2024-03-09T03:23:54.343Z,90.80
2024-03-09T03:26:21.751Z,78.80
2024-03-09T03:28:49.716Z,83.80
2024-03-09T03:31:20.288Z,90.80
2024-03-09T03:33:47.770Z,90.80
2024-03-09T03:36:18.726Z,85.10
2024-03-09T03:38:47.650Z,76.80
2024-03-09T03:41:15.984Z,69.90
2024-03-09T03:43:44.224Z,54.60
2024-03-09T03:46:12.656Z,48.10
2024-03-09T03:48:41.349Z,42.50
2024-03-09T03:51:13.935Z,44.60
2024-03-09T03:53:41.533Z,57.80
2024-03-09T03:56:11.354Z,95.20
2024-03-09T03:58:43.599Z,99.90
2024-03-09T04:01:10.825Z,99.90
2024-03-09T04:03:39.488Z,99.90
2024-03-09T04:06:07.610Z,99.90
2024-03-09T04:08:34.846Z,99.90
2024-03-09T04:11:03.485Z,99.90
2024-03-09T04:13:31.929Z,99.90
2024-03-09T04:15:59.460Z,99.90
2024-03-09T04:18:30.004Z,99.90
2024-03-09T04:21:03.129Z,99.90
2024-03-09T04:23:30.144Z,99.90
2024-03-09T04:26:00.208Z,99.90
2024-03-09T04:28:30.257Z,99.90
2024-03-09T04:31:00.915Z,99.90
2024-03-09T04:33:29.733Z,99.90
2024-03-09T04:35:58.525Z,99.90
2024-03-09T04:38:27.492Z,99.90
2024-03-09T04:40:54.347Z,99.90
2024-03-09T04:43:21.531Z,95.30
2024-03-09T04:45:52.759Z,89.30
2024-03-09T04:48:20.332Z,91.50
2024-03-09T04:50:48.790Z,74.10
2024-03-09T04:53:17.610Z,59.80
2024-03-09T04:55:49.643Z,89.90
2024-03-09T04:58:18.212Z,99.90
2024-03-09T05:00:45.778Z,99.90
2024-03-09T05:03:19.066Z,99.90
2024-03-09T05:05:46.189Z,99.90
2024-03-09T05:08:13.397Z,99.90
2024-03-09T05:10:41.024Z,97.10
2024-03-09T05:13:09.487Z,99.90
2024-03-09T05:15:37.675Z,99.90
2024-03-09T05:18:09.327Z,99.90
2024-03-09T05:20:37.219Z,99.90
2024-03-09T05:23:05.791Z,99.90
2024-03-09T05:25:33.025Z,99.90
2024-03-09T05:28:00.068Z,99.90
2024-03-09T05:30:29.694Z,99.90
2024-03-09T05:33:00.937Z,99.90
2024-03-09T05:35:29.401Z,99.90
2024-03-09T05:37:57.537Z,99.90
2024-03-09T05:40:27.939Z,99.90
2024-03-09T05:42:56.592Z,99.90
2024-03-09T05:45:24.203Z,99.90
2024-03-09T05:47:51.910Z,99.90
2024-03-09T05:50:18.800Z,99.90
2024-03-09T05:52:48.796Z,99.90
2024-03-09T05:55:17.300Z,99.90
2024-03-09T05:57:44.603Z,99.90
2024-03-09T06:00:12.375Z,99.90
2024-03-09T06:02:45.024Z,99.90
2024-03-09T06:05:13.526Z,97.80
2024-03-09T06:07:41.356Z,96.30
2024-03-09T06:10:21.391Z,99.80
2024-03-09T06:12:49.228Z,99.90
2024-03-09T06:15:17.201Z,99.90
2024-03-09T06:17:45.364Z,99.90
2024-03-09T06:20:12.629Z,99.90
2024-03-09T06:22:43.293Z,99.90
2024-03-09T06:25:13.867Z,99.90
2024-03-09T06:27:41.101Z,99.90
2024-03-09T06:30:10.235Z,99.90
2024-03-09T06:32:37.079Z,99.90
2024-03-09T06:35:04.540Z,99.90
2024-03-09T06:37:32.316Z,99.40
2024-03-09T06:39:59.173Z,98.40
2024-03-09T06:42:26.012Z,99.90
2024-03-09T06:44:52.956Z,96.80
2024-03-09T06:47:20.354Z,99.40
2024-03-09T06:49:47.571Z,99.90
2024-03-09T06:52:16.354Z,99.90
2024-03-09T06:54:43.411Z,99.90
2024-03-09T06:57:13.356Z,97.20
2024-03-09T06:59:42.910Z,93.00
2024-03-09T07:02:09.822Z,61.50
2024-03-09T07:04:37.092Z,30.70
2024-03-09T07:07:04.198Z,26.90
2024-03-09T07:09:30.964Z,1.00
2024-03-09T07:12:00.886Z,1.00
2024-03-09T07:14:27.921Z,1.00
2024-03-09T07:16:54.976Z,99.90
2024-03-09T07:19:21.942Z,30.60
2024-03-09T07:21:49.084Z,99.90
2024-03-09T07:24:15.895Z,1.00
2024-03-09T07:26:43.046Z,99.90
2024-03-09T07:29:12.241Z,1.00
2024-03-09T07:31:39.409Z,1.00
2024-03-09T07:34:06.364Z,54.50
2024-03-09T07:36:33.197Z,1.00
2024-03-09T07:39:01.414Z,99.90
2024-03-09T07:41:28.240Z,1.00
2024-03-09T07:43:55.131Z,1.00
2024-03-09T07:46:22.295Z,99.90
2024-03-09T07:48:49.729Z,99.90
2024-03-09T07:51:16.681Z,99.90
2024-03-09T07:53:43.593Z,99.90
2024-03-09T07:56:13.813Z,99.90
2024-03-09T07:58:41.259Z,74.40
2024-03-09T08:01:09.348Z,1.00
2024-03-09T08:03:36.540Z,1.00
2024-03-09T08:06:03.484Z,1.00
2024-03-09T08:08:30.913Z,1.00
2024-03-09T08:10:58.703Z,1.00
2024-03-09T08:13:26.792Z,1.00
2024-03-09T08:15:55.526Z,1.00
2024-03-09T08:18:23.509Z,1.00
2024-03-09T08:20:51.170Z,1.00
2024-03-09T08:23:19.040Z,1.00
2024-03-09T08:25:46.542Z,1.00
2024-03-09T08:28:14.419Z,1.00
2024-03-09T08:30:42.309Z,1.00
2024-03-09T08:33:11.072Z,1.00
2024-03-09T08:35:38.317Z,1.00
2024-03-09T08:38:06.187Z,1.00
2024-03-09T08:40:33.753Z,1.00
2024-03-09T08:43:01.055Z,1.00
2024-03-09T08:45:33.960Z,1.00
2024-03-09T08:48:00.855Z,1.00
2024-03-09T08:50:27.713Z,1.00
2024-03-09T08:52:54.695Z,1.00
2024-03-09T08:55:21.730Z,1.00
2024-03-09T08:57:50.426Z,1.00
2024-03-09T09:00:21.614Z,1.00
2024-03-09T09:02:49.222Z,1.00
2024-03-09T09:05:16.920Z,1.00
2024-03-09T09:07:45.835Z,1.00
2024-03-09T09:10:13.156Z,1.00
2024-03-09T09:12:40.811Z,1.00
2024-03-09T09:15:08.947Z,1.00
2024-03-09T09:17:36.576Z,1.00
2024-03-09T09:20:06.124Z,1.00
2024-03-09T09:22:33.641Z,1.00
2024-03-09T09:25:00.718Z,1.00
2024-03-09T09:27:29.980Z,1.00
2024-03-09T09:29:56.873Z,1.00
2024-03-09T09:32:25.406Z,1.00
2024-03-09T09:34:52.545Z,1.00
2024-03-09T09:37:19.588Z,1.00
2024-03-09T09:39:47.864Z,1.00
2024-03-09T09:42:14.809Z,1.00
2024-03-09T09:44:42.101Z,1.00
2024-03-09T09:47:11.563Z,1.00
2024-03-09T09:49:39.535Z,1.00
2024-03-09T09:52:08.642Z,1.00
2024-03-09T09:54:35.779Z,1.00
2024-03-09T09:57:02.584Z,1.00
2024-03-09T09:59:31.930Z,1.00
2024-03-09T10:01:59.171Z,1.00
2024-03-09T10:04:27.778Z,1.00
2024-03-09T10:07:06.032Z,1.00
2024-03-09T10:09:36.120Z,1.00
2024-03-09T10:12:05.045Z,1.00
2024-03-09T10:14:32.228Z,1.00
2024-03-09T10:17:08.062Z,1.00
2024-03-09T10:19:36.045Z,1.00
2024-03-09T10:22:03.117Z,1.00
2024-03-09T10:24:30.117Z,1.00
2024-03-09T10:27:11.577Z,1.00
2024-03-09T10:29:38.505Z,1.00
2024-03-09T10:32:09.291Z,1.00
2024-03-09T10:34:36.845Z,1.00
2024-03-09T10:37:08.142Z,1.00
2024-03-09T10:39:35.058Z,1.00
2024-03-09T10:42:05.310Z,1.00
2024-03-09T10:44:32.755Z,1.00
2024-03-09T10:47:03.752Z,1.00
2024-03-09T10:49:32.115Z,1.00
2024-03-09T10:52:03.715Z,1.00
2024-03-09T10:55:00.352Z,1.00
2024-03-09T10:57:30.874Z,1.00
2024-03-09T11:00:05.216Z,1.00
2024-03-09T11:02:40.648Z,1.00
2024-03-09T11:05:09.858Z,1.00
2024-03-09T11:17:36.287Z,1.00
2024-03-09T11:29:53.572Z,1.00
2024-03-09T11:37:16.492Z,1.00
2024-03-09T11:42:17.239Z,1.00
2024-03-09T11:54:45.277Z,1.00
2024-03-09T11:57:12.095Z,1.00
2024-03-09T11:59:38.841Z,1.00
2024-03-09T12:02:09.243Z,1.00
2024-03-09T12:04:37.325Z,1.00
2024-03-09T12:09:34.793Z,1.00
2024-03-09T12:12:10.223Z,1.00
2024-03-09T12:14:37.373Z,1.00
2024-03-09T12:29:21.174Z,1.00
2024-03-09T12:31:49.373Z,1.00
2024-03-09T12:39:17.915Z,1.00
2024-03-09T12:46:41.709Z,1.00
2024-03-09T12:59:05.433Z,1.00
2024-03-09T13:01:33.546Z,1.00
2024-03-09T13:04:05.609Z,1.00
2024-03-09T13:06:32.450Z,1.00
2024-03-09T13:09:00.337Z,1.00
2024-03-09T13:11:28.536Z,1.00
2024-03-09T13:13:56.236Z,1.00
2024-03-09T13:16:23.164Z,1.00
2024-03-09T13:18:51.481Z,1.00
2024-03-09T13:21:18.607Z,1.00
2024-03-09T13:23:45.685Z,1.00
2024-03-09T13:26:15.874Z,1.00
2024-03-09T13:28:43.099Z,1.00
2024-03-09T13:31:10.551Z,1.00
2024-03-09T13:33:43.428Z,1.00
2024-03-09T13:36:17.924Z,1.00
2024-03-09T13:38:45.241Z,1.00
2024-03-09T13:41:12.135Z,1.00
2024-03-09T13:43:45.338Z,1.00
2024-03-09T13:46:12.606Z,1.00
2024-03-09T13:48:44.294Z,1.00
2024-03-09T13:51:16.558Z,1.00
2024-03-09T13:53:44.335Z,1.00
2024-03-09T13:56:21.345Z,1.00
2024-03-09T13:58:48.982Z,1.00
2024-03-09T14:03:45.832Z,1.00
2024-03-09T14:06:21.128Z,1.00
2024-03-09T14:08:49.369Z,1.00
2024-03-09T14:11:19.652Z,1.00
2024-03-09T14:13:46.866Z,1.00
2024-03-09T14:16:15.264Z,1.00
2024-03-09T14:18:46.025Z,1.00
2024-03-09T14:21:19.260Z,1.00
2024-03-09T14:23:47.703Z,1.00
2024-03-09T14:26:14.621Z,1.00
2024-03-09T14:28:43.992Z,1.00
2024-03-09T14:31:16.817Z,1.00
2024-03-09T14:33:45.627Z,1.00
2024-03-09T14:36:19.599Z,1.00
2024-03-09T14:38:46.993Z,1.00
2024-03-09T14:41:19.377Z,1.00
2024-03-09T14:43:48.348Z,1.00
2024-03-09T14:46:15.346Z,1.00
2024-03-09T14:48:42.333Z,1.00
2024-03-09T14:51:11.723Z,1.00
2024-03-09T14:53:44.088Z,1.00
2024-03-09T14:56:11.127Z,1.00
2024-03-09T14:58:47.781Z,1.00
2024-03-09T15:01:25.639Z,1.00
2024-03-09T15:03:53.335Z,1.00
2024-03-09T15:06:22.294Z,1.00
2024-03-09T15:08:52.949Z,1.00
2024-03-09T15:11:21.818Z,1.00
2024-03-09T15:13:59.393Z,1.00
2024-03-09T15:16:28.950Z,1.00
2024-03-09T15:18:56.567Z,1.00
2024-03-09T15:21:26.524Z,1.00
2024-03-09T15:23:55.573Z,1.00
2024-03-09T15:26:28.529Z,1.00
2024-03-09T15:28:58.153Z,1.00
2024-03-09T15:31:25.446Z,1.00
2024-03-09T15:33:54.986Z,1.00
2024-03-09T15:36:22.195Z,1.00
2024-03-09T15:38:49.739Z,1.00
2024-03-09T15:41:17.583Z,1.00
2024-03-09T15:43:47.414Z,1.00
2024-03-09T15:46:14.935Z,1.00
2024-03-09T15:48:41.788Z,1.00
2024-03-09T15:51:11.670Z,1.00
2024-03-09T15:53:41.278Z,1.00
2024-03-09T15:56:08.617Z,1.00
2024-03-09T15:58:41.658Z,1.00
2024-03-09T16:01:10.079Z,1.00
2024-03-09T16:03:43.173Z,1.00
2024-03-09T16:06:11.120Z,1.00
2024-03-09T16:08:38.740Z,1.00
2024-03-09T16:11:05.638Z,1.00
2024-03-09T16:13:33.142Z,1.00
2024-03-09T16:16:08.721Z,1.00
2024-03-09T16:18:36.626Z,1.00
2024-03-09T16:21:08.616Z,1.00
2024-03-09T16:23:45.426Z,1.00
2024-03-09T16:26:13.863Z,1.00
2024-03-09T16:28:40.771Z,1.00
2024-03-09T16:31:12.608Z,1.00
2024-03-09T16:33:40.189Z,1.00
2024-03-09T16:36:07.478Z,1.00
2024-03-09T16:38:34.600Z,1.00
2024-03-09T16:41:03.208Z,1.00
2024-03-09T16:43:34.903Z,1.00
2024-03-09T16:46:07.084Z,1.00
2024-03-09T16:48:37.846Z,1.00
2024-03-09T16:51:08.230Z,1.00
2024-03-09T16:53:38.325Z,1.00
2024-03-09T16:56:06.656Z,1.00
2024-03-09T16:58:34.170Z,1.00
2024-03-09T17:01:06.146Z,1.00
2024-03-09T17:03:33.798Z,1.00
2024-03-09T17:06:00.988Z,1.00
2024-03-09T17:08:28.246Z,1.00
2024-03-09T17:10:55.440Z,1.00
2024-03-09T17:13:25.482Z,1.00
2024-03-09T17:15:52.345Z,1.00
2024-03-09T17:18:22.659Z,1.00
2024-03-09T17:20:54.295Z,1.00
2024-03-09T17:23:22.963Z,1.00
2024-03-09T17:25:50.886Z,1.00
2024-03-09T17:28:21.900Z,1.00
2024-03-09T17:30:50.352Z,1.00
2024-03-09T17:33:18.567Z,1.00
2024-03-09T17:35:45.829Z,1.00
2024-03-09T17:38:12.840Z,1.00
2024-03-09T17:40:47.657Z,1.00
2024-03-09T17:43:15.117Z,1.00
2024-03-09T17:45:42.170Z,1.00
2024-03-09T17:48:09.550Z,1.00
2024-03-09T17:50:37.522Z,1.00
2024-03-09T17:53:06.830Z,1.00
2024-03-09T17:55:34.414Z,1.00
2024-03-09T17:58:09.739Z,1.00
2024-03-09T18:00:40.255Z,1.00
2024-03-09T18:03:09.324Z,1.00
2024-03-09T18:05:39.120Z,1.00
2024-03-09T18:08:11.538Z,1.00
2024-03-09T18:10:40.917Z,1.00
2024-03-09T18:13:12.396Z,1.00
2024-03-09T18:15:41.512Z,1.00
2024-03-09T18:18:14.847Z,1.00
2024-03-09T18:20:43.624Z,1.00
2024-03-09T18:23:11.859Z,1.00
2024-03-09T18:25:39.358Z,1.00
2024-03-09T18:28:09.522Z,1.00
2024-03-09T18:30:36.892Z,1.00
2024-03-09T18:33:10.677Z,1.00
2024-03-09T18:35:39.192Z,1.00
2024-03-09T18:38:08.094Z,1.00
2024-03-09T18:40:35.172Z,1.00
2024-03-09T18:43:03.729Z,20.10
2024-03-09T18:45:34.572Z,20.90
2024-03-09T18:48:02.370Z,22.20
2024-03-09T18:50:29.681Z,22.60
2024-03-09T18:52:59.353Z,23.40
2024-03-09T18:55:27.320Z,25.50
2024-03-09T18:57:54.915Z,40.90
2024-03-09T19:00:22.275Z,37.00
2024-03-09T19:02:52.296Z,43.70
2024-03-09T19:05:21.625Z,47.10
2024-03-09T19:07:48.946Z,49.20
2024-03-09T19:10:15.940Z,67.60
2024-03-09T19:12:43.154Z,65.00
2024-03-09T19:15:11.921Z,50.90
2024-03-09T19:17:40.220Z,54.10
2024-03-09T19:20:13.325Z,58.80
2024-03-09T19:22:41.053Z,79.80
2024-03-09T19:25:12.434Z,62.40
2024-03-09T19:27:43.173Z,92.30
2024-03-09T19:30:11.711Z,93.80
2024-03-09T19:32:39.183Z,91.10
2024-03-09T19:35:11.146Z,70.00
2024-03-09T19:37:39.933Z,76.30
2024-03-09T19:40:17.193Z,48.50
2024-03-09T19:42:47.776Z,15.80
2024-03-09T19:45:15.491Z,2.10
2024-03-09T19:47:42.776Z,5.80
2024-03-09T19:50:12.883Z,19.10
2024-03-09T19:52:42.123Z,28.30
2024-03-09T19:55:13.439Z,44.10
2024-03-09T19:57:42.084Z,67.30
2024-03-09T20:00:13.132Z,43.40
2024-03-09T20:02:40.821Z,15.90
2024-03-09T20:05:08.708Z,1.00
2024-03-09T20:07:36.259Z,1.00
2024-03-09T20:10:05.768Z,1.00
2024-03-09T20:12:34.844Z,1.00
2024-03-09T20:15:02.856Z,1.00
2024-03-09T20:17:30.947Z,1.00
2024-03-09T20:19:58.081Z,1.00
2024-03-09T20:22:25.185Z,1.00
2024-03-09T20:24:52.601Z,1.00
2024-03-09T20:27:19.636Z,1.00
2024-03-09T20:29:46.743Z,1.00
2024-03-09T20:32:14.207Z,1.00
2024-03-09T20:34:41.238Z,1.00
2024-03-09T20:37:08.247Z,1.00
2024-03-09T20:39:35.332Z,1.00
2024-03-09T20:42:02.453Z,1.00
2024-03-09T20:44:31.336Z,1.00
2024-03-09T20:46:58.517Z,1.00
2024-03-09T20:49:25.423Z,1.00
2024-03-09T20:51:53.130Z,1.00
2024-03-09T20:54:29.679Z,1.00
2024-03-09T20:56:57.605Z,1.00
2024-03-09T20:59:25.591Z,1.00
2024-03-09T21:01:52.451Z,1.00
2024-03-09T21:04:20.188Z,1.00
2024-03-09T21:06:47.781Z,1.00
2024-03-09T21:09:15.772Z,1.00
2024-03-09T21:11:43.487Z,1.00
2024-03-09T21:14:10.480Z,1.00
2024-03-09T21:16:37.379Z,1.00
2024-03-09T21:19:04.439Z,1.00
2024-03-09T21:21:31.953Z,1.00
2024-03-09T21:24:02.902Z,1.00
2024-03-09T21:26:29.971Z,1.00
2024-03-09T21:28:56.922Z,1.00
2024-03-09T21:31:24.076Z,1.00
2024-03-09T21:33:50.908Z,1.00
2024-03-09T21:36:18.293Z,1.00
2024-03-09T21:38:45.194Z,1.00
2024-03-09T21:41:12.945Z,1.00
2024-03-09T21:43:42.149Z,1.00
2024-03-09T21:46:11.483Z,1.00
2024-03-09T21:48:38.518Z,1.00
2024-03-09T21:51:08.837Z,1.00
2024-03-09T21:53:38.291Z,2.30
2024-03-09T21:56:06.563Z,14.20
2024-03-09T21:58:37.044Z,34.10
2024-03-09T22:01:07.557Z,76.00
2024-03-09T22:03:34.922Z,85.10
2024-03-09T22:06:03.492Z,84.90
2024-03-09T22:08:30.532Z,91.90
2024-03-09T22:10:58.526Z,97.50
2024-03-09T22:13:25.477Z,95.20
2024-03-09T22:15:52.390Z,98.90
2024-03-09T22:18:19.808Z,99.90
2024-03-09T22:20:51.132Z,99.90
2024-03-09T22:23:18.648Z,99.90
2024-03-09T22:25:46.283Z,99.90
2024-03-09T22:28:13.167Z,99.90
2024-03-09T22:30:40.352Z,99.90
2024-03-09T22:33:07.302Z,99.90
2024-03-09T22:35:34.510Z,99.90
2024-03-09T22:38:01.850Z,99.90
2024-03-09T22:40:29.046Z,1.00
2024-03-09T22:42:56.536Z,1.00
2024-03-09T22:45:26.780Z,1.00
2024-03-09T22:47:54.186Z,84.20
2024-03-09T22:50:25.291Z,99.90
2024-03-09T22:52:53.443Z,99.90
2024-03-09T22:55:20.417Z,99.90
2024-03-09T22:57:48.283Z,1.00
2024-03-09T23:00:28.034Z,1.00
2024-03-09T23:02:55.611Z,99.90
2024-03-09T23:05:24.224Z,3.70
2024-03-09T23:07:51.425Z,1.00
2024-03-09T23:10:21.357Z,1.00
2024-03-09T23:12:51.775Z,1.00
2024-03-09T23:15:19.507Z,1.00
2024-03-09T23:17:52.949Z,1.00
2024-03-09T23:20:21.090Z,1.00
2024-03-09T23:22:48.474Z,1.00
2024-03-09T23:25:16.370Z,1.00
2024-03-09T23:27:44.100Z,1.00
2024-03-09T23:30:16.427Z,1.00
2024-03-09T23:32:44.558Z,1.00
2024-03-09T23:35:12.510Z,1.00
2024-03-09T23:37:42.097Z,1.00
2024-03-09T23:40:09.695Z,1.00
2024-03-09T23:42:40.185Z,1.00
2024-03-09T23:45:11.465Z,1.00
2024-03-09T23:47:42.554Z,1.00
2024-03-09T23:50:13.472Z,1.00
2024-03-09T23:52:44.726Z,99.90
2024-03-09T23:55:13.268Z,99.90
2024-03-09T23:57:41.035Z,99.90
